createdAt,value
2022-08-01T00:00:18.915Z,53.23
2022-08-01T00:01:19.208Z,53.43
2022-08-01T00:02:19.597Z,53.53
2022-08-01T00:03:19.863Z,53.66
2022-08-01T00:04:20.137Z,53.56
2022-08-01T00:05:20.413Z,53.66
2022-08-01T00:06:20.661Z,53.63
2022-08-01T00:07:41.989Z,53.75
2022-08-01T00:08:21.295Z,53.73
2022-08-01T00:09:24.020Z,53.73
2022-08-01T00:10:21.964Z,53.96
2022-08-01T00:11:22.204Z,54.05
2022-08-01T00:12:22.518Z,54.15
2022-08-01T00:13:22.815Z,54.55
2022-08-01T00:14:23.075Z,54.75
2022-08-01T00:15:24.333Z,55.04
2022-08-01T00:16:23.649Z,55.04
2022-08-01T00:17:23.862Z,55.04
2022-08-01T00:18:24.251Z,55.24
2022-08-01T00:19:24.558Z,55.36
2022-08-01T00:20:24.835Z,55.47
2022-08-01T00:21:25.215Z,55.36
2022-08-01T00:22:25.357Z,55.36
2022-08-01T00:23:25.693Z,55.66
2022-08-01T00:24:25.981Z,55.96
2022-08-01T00:25:33.685Z,55.76
2022-08-01T00:26:27.579Z,55.87
2022-08-01T00:27:26.899Z,55.66
2022-08-01T00:28:27.108Z,55.57
2022-08-01T00:30:09.734Z,55.57
2022-08-01T00:30:28.768Z,55.47
2022-08-01T00:31:28.083Z,55.47
2022-08-01T00:32:28.331Z,55.57
2022-08-01T00:33:28.683Z,55.66
2022-08-01T00:34:28.962Z,55.96
2022-08-01T00:35:29.212Z,56.19
2022-08-01T00:36:29.510Z,56.38
2022-08-01T00:37:29.847Z,56.59
2022-08-01T00:38:30.142Z,56.98
2022-08-01T00:39:30.410Z,57.08
2022-08-01T00:40:30.713Z,57.18
2022-08-01T00:41:31.075Z,56.88
2022-08-01T00:42:31.395Z,56.88
2022-08-01T00:43:31.701Z,56.78
2022-08-01T00:44:31.962Z,56.88
2022-08-01T00:45:32.238Z,57.18
2022-08-01T00:46:32.547Z,57.28
2022-08-01T00:47:32.885Z,57.08
2022-08-01T00:48:33.155Z,57.21
2022-08-01T00:49:33.503Z,57.31
2022-08-01T00:50:33.809Z,57.51
2022-08-01T00:51:34.058Z,57.81
2022-08-01T00:52:34.425Z,57.90
2022-08-01T00:53:51.138Z,57.81
2022-08-01T00:54:36.006Z,57.70
2022-08-01T00:55:35.377Z,58.00
2022-08-01T00:56:35.675Z,58.20
2022-08-01T00:58:03.742Z,58.30
2022-08-01T00:58:37.246Z,58.40
2022-08-01T00:59:36.937Z,58.30
2022-08-01T01:00:52.948Z,58.40
2022-08-01T01:01:40.007Z,58.53
2022-08-01T01:02:37.334Z,58.50
2022-08-01T01:03:58.049Z,58.60
2022-08-01T01:04:39.001Z,58.60
2022-08-01T01:05:38.218Z,58.40
2022-08-01T01:06:38.515Z,58.80
2022-08-01T01:07:38.832Z,58.92
2022-08-01T01:08:40.103Z,58.92
2022-08-01T01:09:39.359Z,58.73
2022-08-01T01:10:39.681Z,58.73
2022-08-01T01:11:39.972Z,58.53
2022-08-01T01:12:41.819Z,58.53
2022-08-01T01:13:48.417Z,58.53
2022-08-01T01:14:41.793Z,58.43
2022-08-01T01:15:40.953Z,58.30
2022-08-01T01:16:41.282Z,58.20
2022-08-01T01:17:49.599Z,58.20
2022-08-01T01:18:42.920Z,58.33
2022-08-01T01:19:42.202Z,58.33
2022-08-01T01:20:42.508Z,58.33
2022-08-01T01:21:42.884Z,58.33
2022-08-01T01:22:43.046Z,58.53
2022-08-01T01:23:43.329Z,58.62
2022-08-01T01:24:43.624Z,58.73
2022-08-01T01:25:43.889Z,58.73
2022-08-01T01:26:44.183Z,58.83
2022-08-01T01:27:44.526Z,58.83
2022-08-01T01:28:44.793Z,58.92
2022-08-01T01:29:59.660Z,58.92
2022-08-01T01:30:46.378Z,58.92
2022-08-01T01:31:45.715Z,58.83
2022-08-01T01:32:45.984Z,58.83
2022-08-01T01:33:47.607Z,59.12
2022-08-01T01:34:46.597Z,58.83
2022-08-01T01:35:46.902Z,58.92
2022-08-01T01:36:47.136Z,58.92
2022-08-01T01:37:47.458Z,58.92
2022-08-01T01:38:47.757Z,58.83
2022-08-01T01:39:54.272Z,58.83
2022-08-01T01:40:49.302Z,58.92
2022-08-01T01:41:48.569Z,59.12
2022-08-01T01:42:48.820Z,59.03
2022-08-01T01:43:49.172Z,59.22
2022-08-01T01:44:49.437Z,59.22
2022-08-01T01:45:49.751Z,59.32
2022-08-01T01:46:50.028Z,59.42
2022-08-01T01:47:50.291Z,59.22
2022-08-01T01:48:50.747Z,59.42
2022-08-01T01:49:50.863Z,59.52
2022-08-01T01:50:51.245Z,59.32
2022-08-01T01:52:02.491Z,59.22
2022-08-01T01:52:52.778Z,59.32
2022-08-01T01:53:52.064Z,59.32
2022-08-01T01:54:52.332Z,59.22
2022-08-01T01:55:52.656Z,59.03
2022-08-01T01:56:52.938Z,59.12
2022-08-01T01:57:53.217Z,59.12
2022-08-01T01:58:53.479Z,59.12
2022-08-01T01:59:53.761Z,59.15
2022-08-01T02:00:54.075Z,59.35
2022-08-01T02:02:05.074Z,59.45
2022-08-01T02:02:55.762Z,59.45
2022-08-01T02:03:54.887Z,59.55
2022-08-01T02:04:55.187Z,59.45
2022-08-01T02:05:55.523Z,59.45
2022-08-01T02:06:55.770Z,59.35
2022-08-01T02:07:59.427Z,59.35
2022-08-01T02:08:56.384Z,59.35
2022-08-01T02:09:56.715Z,59.35
2022-08-01T02:10:56.951Z,59.45
2022-08-01T02:12:07.584Z,59.45
2022-08-01T02:12:58.574Z,59.35
2022-08-01T02:13:57.929Z,59.45
2022-08-01T02:14:58.199Z,59.35
2022-08-01T02:15:59.724Z,59.55
2022-08-01T02:16:58.709Z,59.65
2022-08-01T02:17:58.999Z,59.75
2022-08-01T02:18:59.298Z,59.85
2022-08-01T02:19:59.634Z,60.14
2022-08-01T02:20:59.857Z,60.25
2022-08-01T02:22:00.131Z,60.38
2022-08-01T02:23:00.427Z,60.57
2022-08-01T02:24:05.730Z,60.57
2022-08-01T02:25:01.995Z,60.68
2022-08-01T02:26:01.286Z,60.68
2022-08-01T02:27:02.598Z,60.55
2022-08-01T02:28:01.876Z,60.35
2022-08-01T02:29:02.167Z,60.55
2022-08-01T02:30:02.513Z,60.47
2022-08-01T02:31:02.725Z,60.38
2022-08-01T02:32:03.301Z,60.25
2022-08-01T02:33:03.352Z,60.47
2022-08-01T02:34:03.587Z,60.57
2022-08-01T02:35:03.877Z,60.57
2022-08-01T02:36:30.914Z,60.47
2022-08-01T02:37:05.374Z,60.57
2022-08-01T02:38:04.669Z,60.57
2022-08-01T02:39:04.966Z,60.47
2022-08-01T02:40:05.278Z,60.27
2022-08-01T02:41:05.605Z,59.98
2022-08-01T02:42:06.274Z,59.98
2022-08-01T02:43:06.158Z,60.08
2022-08-01T02:44:06.480Z,60.08
2022-08-01T02:45:06.741Z,59.98
2022-08-01T02:46:07.031Z,60.08
2022-08-01T02:47:07.353Z,59.98
2022-08-01T02:48:07.627Z,59.88
2022-08-01T02:49:08.361Z,59.78
2022-08-01T02:50:08.227Z,59.88
2022-08-01T02:51:08.474Z,59.68
2022-08-01T02:52:09.107Z,59.55
2022-08-01T02:53:09.101Z,59.45
2022-08-01T02:54:09.376Z,59.45
2022-08-01T02:55:09.665Z,59.55
2022-08-01T02:56:09.964Z,59.55
2022-08-01T02:57:13.645Z,59.55
2022-08-01T02:58:10.575Z,59.55
2022-08-01T02:59:10.850Z,59.55
2022-08-01T03:00:11.107Z,59.75
2022-08-01T03:01:11.474Z,59.75
2022-08-01T03:02:11.828Z,59.98
2022-08-01T03:03:12.014Z,60.08
2022-08-01T03:04:12.375Z,60.08
2022-08-01T03:05:12.676Z,60.08
2022-08-01T03:06:12.830Z,60.27
2022-08-01T03:07:13.216Z,60.27
2022-08-01T03:08:14.835Z,60.17
2022-08-01T03:09:13.699Z,60.08
2022-08-01T03:10:14.023Z,60.17
2022-08-01T03:11:14.308Z,60.27
2022-08-01T03:12:14.568Z,60.27
2022-08-01T03:13:14.860Z,60.27
2022-08-01T03:14:15.172Z,60.38
2022-08-01T03:15:15.473Z,60.47
2022-08-01T03:16:15.749Z,60.38
2022-08-01T03:17:15.996Z,60.38
2022-08-01T03:18:16.215Z,60.40
2022-08-01T03:19:16.492Z,60.47
2022-08-01T03:20:16.719Z,60.47
2022-08-01T03:21:16.997Z,60.77
2022-08-01T03:22:17.185Z,60.68
2022-08-01T03:23:17.547Z,60.80
2022-08-01T03:24:17.781Z,61.00
2022-08-01T03:25:17.975Z,60.80
2022-08-01T03:26:18.267Z,60.80
2022-08-01T03:27:18.532Z,60.90
2022-08-01T03:28:18.937Z,60.90
2022-08-01T03:29:19.081Z,60.90
2022-08-01T03:30:19.335Z,61.00
2022-08-01T03:31:19.531Z,61.20
2022-08-01T03:32:19.941Z,61.30
2022-08-01T03:33:20.170Z,61.00
2022-08-01T03:34:20.403Z,61.20
2022-08-01T03:35:20.703Z,61.20
2022-08-01T03:36:21.122Z,61.40
2022-08-01T03:37:21.277Z,61.80
2022-08-01T03:38:21.606Z,61.80
2022-08-01T03:39:21.923Z,61.90
2022-08-01T03:40:22.175Z,61.90
2022-08-01T03:41:22.541Z,61.90
2022-08-01T03:42:22.751Z,61.93
2022-08-01T03:43:23.094Z,61.99
2022-08-01T03:44:23.312Z,62.13
2022-08-01T03:45:23.644Z,61.93
2022-08-01T03:46:25.263Z,61.99
2022-08-01T03:47:24.215Z,61.83
2022-08-01T03:48:24.577Z,61.99
2022-08-01T03:49:24.872Z,61.80
2022-08-01T03:50:25.115Z,61.50
2022-08-01T03:51:25.309Z,61.30
2022-08-01T03:52:25.698Z,61.10
2022-08-01T03:53:25.889Z,61.20
2022-08-01T03:54:26.205Z,61.20
2022-08-01T03:55:26.552Z,61.30
2022-08-01T03:56:26.892Z,61.43
2022-08-01T03:57:36.679Z,61.30
2022-08-01T03:58:28.389Z,61.53
2022-08-01T03:59:27.746Z,61.63
2022-08-01T04:00:27.964Z,61.63
2022-08-01T04:01:28.357Z,61.53
2022-08-01T04:02:28.548Z,61.40
2022-08-01T04:03:28.899Z,61.33
2022-08-01T04:04:29.113Z,61.20
2022-08-01T04:05:29.488Z,61.20
2022-08-01T04:06:29.700Z,61.10
2022-08-01T04:07:30.035Z,61.20
2022-08-01T04:08:30.366Z,61.00
2022-08-01T04:09:30.685Z,61.10
2022-08-01T04:10:31.073Z,61.00
2022-08-01T04:11:31.338Z,61.10
2022-08-01T04:12:31.519Z,61.10
2022-08-01T04:13:37.019Z,61.30
2022-08-01T04:14:33.092Z,61.43
2022-08-01T04:15:32.317Z,61.53
2022-08-01T04:16:32.682Z,61.53
2022-08-01T04:17:32.891Z,61.63
2022-08-01T04:18:33.300Z,61.72
2022-08-01T04:19:33.478Z,61.83
2022-08-01T04:20:33.695Z,61.83
2022-08-01T04:21:34.042Z,61.83
2022-08-01T04:22:37.466Z,61.93
2022-08-01T04:23:34.614Z,61.93
2022-08-01T04:24:34.859Z,62.15
2022-08-01T04:25:35.078Z,62.02
2022-08-01T04:26:35.413Z,62.02
2022-08-01T04:27:48.612Z,62.15
2022-08-01T04:28:37.069Z,62.15
2022-08-01T04:29:36.480Z,62.15
2022-08-01T04:30:36.665Z,62.15
2022-08-01T04:31:36.991Z,62.05
2022-08-01T04:32:37.329Z,62.13
2022-08-01T04:33:37.671Z,62.15
2022-08-01T04:34:38.059Z,62.15
2022-08-01T04:36:01.784Z,62.26
2022-08-01T04:36:39.593Z,62.35
2022-08-01T04:37:38.936Z,62.45
2022-08-01T04:38:39.262Z,62.35
2022-08-01T04:39:50.641Z,62.26
2022-08-01T04:40:40.851Z,62.15
2022-08-01T04:41:39.975Z,62.15
2022-08-01T04:42:40.317Z,62.15
2022-08-01T04:43:40.670Z,62.15
2022-08-01T04:44:41.035Z,62.45
2022-08-01T04:45:41.197Z,62.75
2022-08-01T04:46:41.555Z,62.75
2022-08-01T04:47:41.759Z,62.55
2022-08-01T04:48:42.151Z,62.55
2022-08-01T04:49:49.024Z,62.65
2022-08-01T04:50:43.677Z,62.65
2022-08-01T04:51:42.912Z,62.55
2022-08-01T04:52:43.295Z,62.65
2022-08-01T04:53:43.505Z,62.55
2022-08-01T04:54:43.720Z,62.45
2022-08-01T04:55:44.049Z,62.45
2022-08-01T04:56:44.400Z,62.35
2022-08-01T04:57:44.724Z,62.26
2022-08-01T04:58:45.049Z,62.26
2022-08-01T04:59:45.395Z,62.26
2022-08-01T05:00:45.625Z,62.26
2022-08-01T05:01:46.009Z,62.35
2022-08-01T05:02:46.212Z,62.35
2022-08-01T05:03:46.549Z,62.26
2022-08-01T05:04:46.895Z,62.26
2022-08-01T05:05:47.122Z,62.15
2022-08-01T05:06:47.478Z,62.05
2022-08-01T05:07:47.704Z,61.93
2022-08-01T05:08:47.948Z,61.93
2022-08-01T05:09:48.170Z,61.93
2022-08-01T05:10:48.559Z,61.83
2022-08-01T05:11:48.764Z,61.83
2022-08-01T05:12:49.066Z,61.72
2022-08-01T05:13:49.397Z,61.63
2022-08-01T05:14:49.763Z,61.53
2022-08-01T05:15:50.460Z,61.63
2022-08-01T05:16:50.232Z,61.93
2022-08-01T05:17:50.498Z,62.35
2022-08-01T05:18:50.685Z,62.55
2022-08-01T05:19:50.977Z,62.88
2022-08-01T05:20:51.239Z,62.98
2022-08-01T05:21:51.488Z,62.88
2022-08-01T05:22:51.752Z,62.75
2022-08-01T05:23:51.970Z,62.55
2022-08-01T05:24:52.319Z,62.45
2022-08-01T05:25:56.951Z,62.55
2022-08-01T05:26:53.956Z,62.65
2022-08-01T05:27:53.206Z,62.65
2022-08-01T05:28:53.605Z,62.65
2022-08-01T05:29:53.761Z,62.55
2022-08-01T05:30:54.140Z,62.35
2022-08-01T05:31:54.421Z,62.26
2022-08-01T05:32:54.662Z,62.13
2022-08-01T05:33:54.902Z,62.13
2022-08-01T05:34:55.238Z,62.26
2022-08-01T05:35:55.478Z,62.35
2022-08-01T05:36:58.017Z,62.32
2022-08-01T05:37:56.036Z,62.13
2022-08-01T05:38:56.352Z,61.93
2022-08-01T05:39:56.579Z,61.83
2022-08-01T05:40:56.910Z,61.50
2022-08-01T05:41:57.988Z,61.40
2022-08-01T05:42:57.417Z,61.43
2022-08-01T05:43:57.615Z,61.53
2022-08-01T05:44:57.971Z,61.93
2022-08-01T05:45:58.206Z,62.13
2022-08-01T05:46:58.474Z,62.02
2022-08-01T05:47:58.705Z,62.02
2022-08-01T05:48:59.007Z,62.13
2022-08-01T05:49:59.254Z,62.13
2022-08-01T05:50:59.519Z,62.35
2022-08-01T05:51:59.741Z,62.45
2022-08-01T05:53:00.094Z,62.55
2022-08-01T05:54:00.293Z,62.55
2022-08-01T05:55:00.658Z,62.55
2022-08-01T05:56:00.909Z,62.55
2022-08-01T05:57:01.143Z,62.45
2022-08-01T05:58:01.372Z,62.55
2022-08-01T05:59:01.716Z,62.65
2022-08-01T06:00:01.963Z,62.52
2022-08-01T06:01:02.203Z,62.55
2022-08-01T06:02:02.638Z,62.52
2022-08-01T06:03:02.706Z,62.32
2022-08-01T06:04:03.905Z,62.23
2022-08-01T06:05:03.290Z,62.13
2022-08-01T06:06:03.590Z,61.69
2022-08-01T06:07:03.850Z,61.60
2022-08-01T06:08:04.210Z,61.37
2022-08-01T06:09:05.508Z,61.07
2022-08-01T06:10:04.741Z,60.77
2022-08-01T06:11:05.027Z,60.68
2022-08-01T06:12:05.497Z,60.68
2022-08-01T06:13:05.478Z,60.57
2022-08-01T06:14:05.839Z,60.55
2022-08-01T06:15:06.129Z,60.44
2022-08-01T06:16:06.300Z,60.35
2022-08-01T06:17:06.680Z,60.35
2022-08-01T06:18:06.886Z,60.14
2022-08-01T06:19:07.250Z,60.55
2022-08-01T06:20:07.518Z,60.14
2022-08-01T06:21:07.733Z,60.05
2022-08-01T06:22:08.328Z,60.14
2022-08-01T06:23:14.723Z,60.31
2022-08-01T06:24:09.498Z,60.12
2022-08-01T06:25:09.701Z,60.31
2022-08-01T06:26:09.054Z,60.22
2022-08-01T06:27:21.757Z,60.12
2022-08-01T06:28:10.662Z,60.22
2022-08-01T06:29:10.000Z,60.25
2022-08-01T06:30:10.193Z,60.25
2022-08-01T06:31:10.429Z,60.35
2022-08-01T06:32:10.625Z,60.35
2022-08-01T06:33:11.992Z,60.64
2022-08-01T06:34:11.243Z,61.04
2022-08-01T06:35:11.475Z,60.94
2022-08-01T06:36:11.835Z,60.74
2022-08-01T06:37:12.102Z,60.52
2022-08-01T06:38:12.334Z,60.42
2022-08-01T06:39:12.674Z,60.12
2022-08-01T06:40:16.900Z,59.92
2022-08-01T06:41:13.150Z,59.82
2022-08-01T06:42:13.551Z,59.49
2022-08-01T06:43:13.771Z,59.30
2022-08-01T06:44:14.013Z,59.19
2022-08-01T06:45:14.279Z,59.19
2022-08-01T06:46:14.511Z,59.00
2022-08-01T06:47:14.865Z,58.70
2022-08-01T06:48:15.086Z,58.70
2022-08-01T06:49:15.496Z,58.60
2022-08-01T06:50:15.765Z,58.60
2022-08-01T06:51:15.977Z,58.47
2022-08-01T06:52:16.309Z,58.50
2022-08-01T06:53:16.494Z,58.50
2022-08-01T06:54:16.769Z,58.60
2022-08-01T06:55:16.986Z,58.67
2022-08-01T06:56:17.200Z,58.60
2022-08-01T06:57:17.575Z,58.67
2022-08-01T06:58:18.063Z,58.57
2022-08-01T06:59:18.088Z,58.67
2022-08-01T07:00:18.519Z,58.67
2022-08-01T07:01:19.639Z,58.67
2022-08-01T07:02:18.813Z,58.57
2022-08-01T07:03:19.226Z,58.57
2022-08-01T07:04:19.396Z,58.57
2022-08-01T07:05:19.656Z,58.57
2022-08-01T07:06:21.039Z,58.47
2022-08-01T07:07:20.323Z,58.47
2022-08-01T07:08:20.471Z,58.47
2022-08-01T07:09:20.976Z,58.47
2022-08-01T07:10:22.056Z,58.57
2022-08-01T07:11:22.314Z,58.67
2022-08-01T07:12:22.233Z,58.77
2022-08-01T07:13:22.129Z,58.87
2022-08-01T07:14:22.791Z,58.87
2022-08-01T07:15:22.892Z,58.60
2022-08-01T07:16:22.776Z,58.80
2022-08-01T07:17:23.053Z,58.77
2022-08-01T07:18:23.421Z,58.67
2022-08-01T07:19:23.971Z,58.57
2022-08-01T07:20:23.986Z,58.77
2022-08-01T07:21:40.056Z,58.70
2022-08-01T07:22:25.510Z,58.90
2022-08-01T07:23:30.365Z,58.87
2022-08-01T07:24:26.962Z,58.67
2022-08-01T07:25:25.401Z,58.57
2022-08-01T07:26:25.608Z,58.37
2022-08-01T07:27:26.388Z,58.27
2022-08-01T07:28:26.435Z,58.27
2022-08-01T07:29:26.631Z,58.25
2022-08-01T07:30:26.882Z,58.25
2022-08-01T07:31:30.627Z,58.37
2022-08-01T07:32:28.500Z,58.27
2022-08-01T07:33:27.734Z,58.47
2022-08-01T07:34:28.982Z,58.57
2022-08-01T07:35:28.307Z,58.77
2022-08-01T07:36:28.462Z,58.77
2022-08-01T07:37:48.317Z,58.77
2022-08-01T07:38:30.150Z,58.64
2022-08-01T07:39:29.386Z,58.25
2022-08-01T07:40:29.776Z,58.04
2022-08-01T07:41:53.208Z,57.95
2022-08-01T07:42:31.324Z,57.95
2022-08-01T07:43:30.594Z,58.04
2022-08-01T07:44:30.833Z,57.95
2022-08-01T07:45:31.133Z,58.17
2022-08-01T07:46:31.405Z,57.95
2022-08-01T07:47:31.631Z,57.95
2022-08-01T07:48:32.010Z,57.85
2022-08-01T07:49:37.512Z,57.85
2022-08-01T07:50:33.631Z,57.75
2022-08-01T07:51:32.795Z,57.55
2022-08-01T07:52:33.007Z,57.55
2022-08-01T07:53:33.261Z,57.65
2022-08-01T07:54:34.681Z,57.65
2022-08-01T07:55:33.841Z,57.85
2022-08-01T07:56:34.122Z,58.27
2022-08-01T07:57:34.306Z,58.27
2022-08-01T07:58:34.512Z,58.04
2022-08-01T07:59:34.775Z,58.04
2022-08-01T08:00:36.527Z,57.95
2022-08-01T08:01:35.562Z,57.62
2022-08-01T08:02:35.775Z,57.55
2022-08-01T08:03:36.133Z,57.55
2022-08-01T08:04:36.431Z,57.65
2022-08-01T08:05:57.982Z,57.75
2022-08-01T08:06:37.863Z,57.75
2022-08-01T08:07:37.110Z,57.53
2022-08-01T08:08:37.371Z,57.32
2022-08-01T08:09:38.061Z,57.03
2022-08-01T08:10:38.320Z,56.83
2022-08-01T08:11:38.172Z,56.73
2022-08-01T08:12:38.364Z,56.73
2022-08-01T08:13:38.631Z,56.73
2022-08-01T08:14:38.889Z,56.73
2022-08-01T08:15:39.223Z,56.53
2022-08-01T08:16:39.517Z,56.51
2022-08-01T08:17:39.738Z,56.40
2022-08-01T08:18:39.983Z,56.83
2022-08-01T08:19:40.469Z,57.45
2022-08-01T08:20:40.717Z,57.45
2022-08-01T08:21:41.007Z,57.23
2022-08-01T08:22:41.213Z,57.23
2022-08-01T08:23:43.628Z,56.93
2022-08-01T08:24:46.119Z,56.70
2022-08-01T08:25:43.023Z,56.70
2022-08-01T08:26:42.338Z,56.83
2022-08-01T08:27:42.574Z,56.60
2022-08-01T08:28:42.925Z,56.80
2022-08-01T08:29:43.142Z,56.60
2022-08-01T08:30:43.413Z,56.40
2022-08-01T08:31:52.178Z,56.40
2022-08-01T08:32:44.918Z,56.40
2022-08-01T08:33:44.220Z,56.08
2022-08-01T08:34:44.472Z,55.56
2022-08-01T08:35:53.677Z,54.64
2022-08-01T08:36:47.909Z,54.74
2022-08-01T08:37:47.421Z,54.54
2022-08-01T08:38:45.554Z,54.24
2022-08-01T08:39:45.763Z,54.24
2022-08-01T08:40:46.050Z,54.35
2022-08-01T08:41:46.242Z,54.14
2022-08-01T08:42:46.604Z,54.14
2022-08-01T08:43:46.797Z,54.14
2022-08-01T08:44:47.071Z,54.05
2022-08-01T08:45:56.150Z,54.14
2022-08-01T08:46:48.547Z,54.44
2022-08-01T08:47:47.834Z,54.35
2022-08-01T08:48:48.070Z,54.27
2022-08-01T08:49:49.323Z,54.37
2022-08-01T08:50:48.689Z,54.57
2022-08-01T08:51:48.917Z,54.67
2022-08-01T08:52:49.206Z,54.67
2022-08-01T08:53:49.488Z,55.09
2022-08-01T08:54:49.752Z,55.29
2022-08-01T08:55:56.171Z,55.29
2022-08-01T08:56:51.348Z,55.29
2022-08-01T08:57:50.606Z,55.61
2022-08-01T08:58:50.824Z,56.53
2022-08-01T08:59:51.081Z,56.26
2022-08-01T09:00:51.490Z,56.46
2022-08-01T09:01:51.683Z,56.85
2022-08-01T09:02:51.951Z,57.06
2022-08-01T09:03:52.211Z,57.15
2022-08-01T09:04:52.427Z,57.58
2022-08-01T09:05:52.821Z,57.98
2022-08-01T09:06:52.865Z,58.17
2022-08-01T09:07:54.053Z,58.07
2022-08-01T09:08:53.544Z,57.98
2022-08-01T09:09:53.799Z,57.65
2022-08-01T09:10:54.670Z,57.55
2022-08-01T09:12:06.994Z,57.35
2022-08-01T09:12:55.551Z,56.93
2022-08-01T09:13:54.787Z,56.73
2022-08-01T09:14:55.162Z,56.40
2022-08-01T09:15:55.406Z,56.01
2022-08-01T09:16:55.621Z,55.58
2022-08-01T09:17:56.010Z,55.26
2022-08-01T09:18:56.255Z,54.64
2022-08-01T09:19:57.657Z,51.94
2022-08-01T09:20:56.866Z,50.93
2022-08-01T09:21:57.164Z,50.93
2022-08-01T09:22:57.412Z,50.73
2022-08-01T09:23:58.559Z,50.83
2022-08-01T09:24:57.899Z,51.05
2022-08-01T09:25:59.363Z,50.93
2022-08-01T09:26:58.601Z,50.21
2022-08-01T09:27:58.902Z,49.82
2022-08-01T09:29:00.095Z,49.69
2022-08-01T09:30:01.866Z,49.08
2022-08-01T09:30:59.784Z,48.14
2022-08-01T09:31:59.995Z,45.99
2022-08-01T09:33:00.323Z,44.04
2022-08-01T09:34:00.569Z,42.70
2022-08-01T09:35:00.787Z,42.31
2022-08-01T09:36:01.550Z,42.60
2022-08-01T09:37:01.336Z,42.31
2022-08-01T09:38:01.732Z,43.66
2022-08-01T09:39:01.946Z,43.96
2022-08-01T09:40:02.308Z,45.09
2022-08-01T09:41:02.543Z,45.30
2022-08-01T09:42:02.787Z,45.72
2022-08-01T09:43:03.279Z,47.19
2022-08-01T09:44:03.467Z,47.97
2022-08-01T09:45:03.773Z,46.72
2022-08-01T09:46:04.091Z,46.21
2022-08-01T09:47:04.500Z,44.96
2022-08-01T09:48:04.636Z,45.06
2022-08-01T09:49:07.308Z,43.84
2022-08-01T09:50:10.533Z,44.04
2022-08-01T09:51:09.464Z,44.26
2022-08-01T09:52:05.704Z,44.57
2022-08-01T09:53:05.973Z,43.74
2022-08-01T09:54:06.312Z,43.13
2022-08-01T09:55:06.603Z,43.45
2022-08-01T09:56:06.866Z,44.47
2022-08-01T09:57:07.533Z,45.09
2022-08-01T09:58:07.364Z,47.48
2022-08-01T09:59:07.670Z,48.59
2022-08-01T10:00:08.143Z,47.75
2022-08-01T10:01:08.396Z,47.00
2022-08-01T10:02:08.640Z,45.60
2022-08-01T10:03:10.468Z,46.11
2022-08-01T10:04:09.726Z,46.53
2022-08-01T10:05:09.426Z,46.82
2022-08-01T10:06:09.686Z,46.94
2022-08-01T10:07:10.389Z,46.82
2022-08-01T10:08:10.179Z,45.70
2022-08-01T10:09:10.485Z,45.20
2022-08-01T10:10:10.737Z,45.20
2022-08-01T10:11:12.199Z,44.89
2022-08-01T10:12:15.550Z,45.20
2022-08-01T10:13:11.544Z,45.94
2022-08-01T10:14:11.875Z,46.45
2022-08-01T10:15:12.071Z,46.94
2022-08-01T10:16:12.372Z,47.36
2022-08-01T10:17:19.473Z,47.56
2022-08-01T10:18:16.446Z,47.48
2022-08-01T10:19:15.386Z,48.00
2022-08-01T10:20:28.963Z,48.41
2022-08-01T10:21:14.797Z,48.51
2022-08-01T10:22:14.863Z,48.63
2022-08-01T10:23:14.309Z,49.13
2022-08-01T10:24:14.650Z,49.22
2022-08-01T10:25:16.303Z,49.45
2022-08-01T10:26:15.108Z,49.62
2022-08-01T10:27:15.607Z,48.98
2022-08-01T10:28:17.939Z,46.33
2022-08-01T10:29:45.157Z,44.87
2022-08-01T10:30:23.363Z,43.02
2022-08-01T10:31:17.674Z,41.07
2022-08-01T10:32:16.967Z,41.31
2022-08-01T10:33:49.808Z,41.80
2022-08-01T10:34:18.453Z,40.16
2022-08-01T10:35:17.709Z,38.92
2022-08-01T10:36:18.989Z,38.32
2022-08-01T10:37:18.172Z,37.81
2022-08-01T10:38:18.473Z,37.19
2022-08-01T10:39:20.042Z,37.00
2022-08-01T10:40:29.890Z,37.00
2022-08-01T10:41:20.274Z,36.80
2022-08-01T10:42:19.543Z,36.61
2022-08-01T10:43:21.821Z,37.21
2022-08-01T10:44:20.015Z,38.53
2022-08-01T10:45:20.309Z,38.04
2022-08-01T10:46:20.706Z,39.36
2022-08-01T10:47:23.335Z,40.39
2022-08-01T10:48:22.208Z,41.21
2022-08-01T10:49:21.564Z,41.94
2022-08-01T10:50:25.972Z,42.45
2022-08-01T10:51:22.125Z,42.68
2022-08-01T10:52:23.377Z,43.69
2022-08-01T10:53:24.381Z,43.90
2022-08-01T10:54:25.700Z,43.15
2022-08-01T10:55:23.208Z,40.90
2022-08-01T10:56:26.760Z,40.08
2022-08-01T10:57:27.486Z,39.36
2022-08-01T10:58:24.037Z,38.96
2022-08-01T10:59:49.261Z,39.78
2022-08-01T11:00:25.629Z,40.80
2022-08-01T11:01:25.513Z,41.42
2022-08-01T11:02:25.184Z,41.52
2022-08-01T11:03:47.631Z,41.62
2022-08-01T11:04:26.697Z,41.62
2022-08-01T11:05:26.112Z,41.42
2022-08-01T11:06:26.295Z,41.11
2022-08-01T11:07:26.657Z,40.90
2022-08-01T11:08:27.898Z,41.60
2022-08-01T11:09:36.644Z,41.92
2022-08-01T11:10:28.421Z,42.31
2022-08-01T11:11:27.710Z,42.72
2022-08-01T11:12:28.126Z,43.04
2022-08-01T11:13:28.349Z,43.55
2022-08-01T11:14:46.668Z,43.65
2022-08-01T11:15:31.209Z,44.06
2022-08-01T11:16:29.178Z,44.27
2022-08-01T11:17:29.518Z,44.49
2022-08-01T11:18:31.021Z,45.42
2022-08-01T11:19:30.112Z,45.81
2022-08-01T11:20:30.379Z,46.03
2022-08-01T11:21:56.282Z,46.23
2022-08-01T11:22:31.976Z,46.65
2022-08-01T11:23:36.320Z,46.75
2022-08-01T11:24:32.507Z,47.06
2022-08-01T11:26:05.265Z,47.58
2022-08-01T11:26:33.047Z,48.32
2022-08-01T11:27:33.651Z,49.25
2022-08-01T11:28:35.561Z,49.87
2022-08-01T11:29:32.851Z,49.74
2022-08-01T11:30:33.135Z,49.77
2022-08-01T11:31:37.283Z,50.78
2022-08-01T11:32:52.599Z,50.46
2022-08-01T11:33:34.993Z,49.84
2022-08-01T11:34:34.234Z,49.03
2022-08-01T11:35:34.595Z,49.33
2022-08-01T11:36:58.490Z,48.61
2022-08-01T11:37:36.115Z,46.31
2022-08-01T11:38:35.350Z,43.74
2022-08-01T11:39:38.861Z,43.86
2022-08-01T11:40:35.856Z,44.49
2022-08-01T11:41:37.985Z,44.18
2022-08-01T11:42:36.421Z,43.52
2022-08-01T11:43:36.795Z,42.60
2022-08-01T11:44:36.990Z,42.31
2022-08-01T11:45:37.377Z,41.80
2022-08-01T11:46:37.525Z,40.78
2022-08-01T11:47:37.994Z,40.47
2022-08-01T11:48:38.052Z,39.55
2022-08-01T11:49:38.674Z,39.57
2022-08-01T11:50:39.083Z,40.19
2022-08-01T11:51:38.954Z,40.90
2022-08-01T11:52:39.245Z,41.42
2022-08-01T11:53:40.338Z,41.92
2022-08-01T11:54:39.820Z,42.02
2022-08-01T11:55:39.997Z,42.23
2022-08-01T11:56:42.958Z,42.33
2022-08-01T11:57:41.597Z,42.43
2022-08-01T11:58:40.998Z,42.03
2022-08-01T11:59:49.386Z,42.23
2022-08-01T12:00:43.948Z,42.45
2022-08-01T12:01:41.822Z,42.96
2022-08-01T12:02:42.154Z,43.15
2022-08-01T12:03:45.901Z,43.47
2022-08-01T12:04:42.681Z,43.47
2022-08-01T12:05:43.469Z,43.18
2022-08-01T12:06:43.316Z,43.08
2022-08-01T12:07:43.636Z,43.18
2022-08-01T12:08:43.857Z,43.15
2022-08-01T12:09:44.096Z,42.96
2022-08-01T12:10:47.031Z,42.65
2022-08-01T12:11:45.811Z,42.76
2022-08-01T12:12:45.031Z,43.39
2022-08-01T12:13:45.376Z,44.34
2022-08-01T12:14:45.537Z,44.83
2022-08-01T12:15:45.765Z,44.95
2022-08-01T12:16:46.101Z,44.83
2022-08-01T12:17:57.331Z,44.73
2022-08-01T12:18:47.685Z,44.42
2022-08-01T12:19:46.890Z,44.02
2022-08-01T12:20:56.726Z,43.32
2022-08-01T12:21:50.342Z,43.53
2022-08-01T12:22:47.847Z,44.02
2022-08-01T12:23:48.218Z,44.15
2022-08-01T12:24:48.432Z,44.32
2022-08-01T12:25:48.781Z,44.02
2022-08-01T12:26:49.005Z,44.02
2022-08-01T12:27:53.171Z,44.24
2022-08-01T12:28:50.755Z,44.22
2022-08-01T12:29:50.025Z,44.02
2022-08-01T12:30:50.251Z,43.95
2022-08-01T12:31:50.655Z,44.34
2022-08-01T12:32:50.973Z,44.64
2022-08-01T12:33:51.370Z,44.71
2022-08-01T12:34:51.731Z,45.23
2022-08-01T12:35:51.874Z,45.35
2022-08-01T12:36:52.107Z,45.84
2022-08-01T12:37:52.332Z,45.62
2022-08-01T12:38:52.619Z,45.52
2022-08-01T12:39:52.844Z,45.32
2022-08-01T12:40:54.835Z,45.32
2022-08-01T12:41:53.553Z,44.15
2022-08-01T12:42:53.754Z,43.95
2022-08-01T12:43:54.075Z,43.85
2022-08-01T12:44:54.402Z,44.26
2022-08-01T12:45:57.418Z,44.46
2022-08-01T12:46:55.068Z,44.54
2022-08-01T12:47:55.324Z,44.34
2022-08-01T12:48:55.633Z,43.95
2022-08-01T12:49:55.807Z,44.26
2022-08-01T12:50:56.162Z,44.76
2022-08-01T12:51:57.093Z,44.85
2022-08-01T12:52:56.697Z,44.93
2022-08-01T12:53:57.048Z,44.93
2022-08-01T12:54:57.323Z,44.83
2022-08-01T12:55:59.388Z,45.03